Pintada, New Mexico
Current Conditions -  °F | °C
As of 3:53 PM on Saturday 25 Oct 2014 (Local Time) from KCQC Reporting Station
Clear Clear  
Wind Chill: 75°   Ceiling: Unl
Heat Index: 75°   Visibility: 10mi
Dew Point: 25°   Wind: 15mph
Humidity: 16%   Direction: 280°W
Pressure: 30.28"   Gusts: 23mph
Location:  34.8581°N, 104.704°W
Report Text: KCQC 252153Z AUTO 28013G20KT 10SM CLR 24/M04 A3028 RMK AO2 SLP168 T02391039
Loading
Personal Weather Stations






























Interactive Weather Map New forecast layout! Learn more

10-Day Weather Forecast

Advertisements
Track Severe Weather on mobile